sensor_id;sensor_type;location;lat;lon;timestamp;temperature;humidity
75925;DHT22;64604;44.752;37.674;2022-11-09T00:01:04;9.52;81.79
75925;DHT22;64604;44.752;37.674;2022-11-09T00:02:05;9.50;81.97
75925;DHT22;64604;44.752;37.674;2022-11-09T00:03:07;9.51;81.76
75925;DHT22;64604;44.752;37.674;2022-11-09T00:04:09;9.50;81.68
75925;DHT22;64604;44.752;37.674;2022-11-09T00:05:11;9.50;81.72
75925;DHT22;64604;44.752;37.674;2022-11-09T00:06:12;9.48;81.58
75925;DHT22;64604;44.752;37.674;2022-11-09T00:07:14;9.48;81.53
75925;DHT22;64604;44.752;37.674;2022-11-09T00:08:15;9.46;81.68
75925;DHT22;64604;44.752;37.674;2022-11-09T00:09:17;9.45;81.58
75925;DHT22;64604;44.752;37.674;2022-11-09T00:10:18;9.45;81.40
75925;DHT22;64604;44.752;37.674;2022-11-09T00:11:20;9.45;81.36
75925;DHT22;64604;44.752;37.674;2022-11-09T00:12:21;9.42;81.36
75925;DHT22;64604;44.752;37.674;2022-11-09T00:13:23;9.44;81.14
75925;DHT22;64604;44.752;37.674;2022-11-09T00:14:24;9.44;80.90
75925;DHT22;64604;44.752;37.674;2022-11-09T00:15:26;9.41;80.69
75925;DHT22;64604;44.752;37.674;2022-11-09T00:16:27;9.42;80.65
75925;DHT22;64604;44.752;37.674;2022-11-09T00:17:28;9.41;80.61
75925;DHT22;64604;44.752;37.674;2022-11-09T00:18:30;9.40;80.85
75925;DHT22;64604;44.752;37.674;2022-11-09T00:19:32;9.41;80.72
75925;DHT22;64604;44.752;37.674;2022-11-09T00:20:33;9.40;80.41
75925;DHT22;64604;44.752;37.674;2022-11-09T00:21:35;9.41;80.53
75925;DHT22;64604;44.752;37.674;2022-11-09T00:22:36;9.42;80.54
75925;DHT22;64604;44.752;37.674;2022-11-09T00:23:37;9.44;80.26
75925;DHT22;64604;44.752;37.674;2022-11-09T00:24:39;9.46;80.13
75925;DHT22;64604;44.752;37.674;2022-11-09T00:25:40;9.48;80.20
75925;DHT22;64604;44.752;37.674;2022-11-09T00:26:41;9.48;80.18
75925;DHT22;64604;44.752;37.674;2022-11-09T00:27:43;9.50;80.13
75925;DHT22;64604;44.752;37.674;2022-11-09T00:28:44;9.50;80.16
75925;DHT22;64604;44.752;37.674;2022-11-09T00:29:46;9.49;80.20
75925;DHT22;64604;44.752;37.674;2022-11-09T00:30:47;9.49;79.92
75925;DHT22;64604;44.752;37.674;2022-11-09T00:31:50;9.50;79.89
75925;DHT22;64604;44.752;37.674;2022-11-09T00:32:51;9.52;79.89
75925;DHT22;64604;44.752;37.674;2022-11-09T00:33:54;9.52;80.14
75925;DHT22;64604;44.752;37.674;2022-11-09T00:34:56;9.54;80.01
75925;DHT22;64604;44.752;37.674;2022-11-09T00:35:57;9.56;79.98
75925;DHT22;64604;44.752;37.674;2022-11-09T00:37:00;9.55;79.97
75925;DHT22;64604;44.752;37.674;2022-11-09T00:38:01;9.56;79.93
75925;DHT22;64604;44.752;37.674;2022-11-09T00:39:03;9.56;80.03
75925;DHT22;64604;44.752;37.674;2022-11-09T00:40:07;9.55;80.25
75925;DHT22;64604;44.752;37.674;2022-11-09T00:41:10;9.53;80.33
75925;DHT22;64604;44.752;37.674;2022-11-09T00:42:12;9.54;80.36
75925;DHT22;64604;44.752;37.674;2022-11-09T00:43:14;9.54;80.54
75925;DHT22;64604;44.752;37.674;2022-11-09T00:44:15;9.59;80.55
75925;DHT22;64604;44.752;37.674;2022-11-09T00:45:18;9.60;80.68
75925;DHT22;64604;44.752;37.674;2022-11-09T00:46:20;9.56;81.01
75925;DHT22;64604;44.752;37.674;2022-11-09T00:47:24;9.51;81.54
75925;DHT22;64604;44.752;37.674;2022-11-09T00:48:26;9.48;81.84
75925;DHT22;64604;44.752;37.674;2022-11-09T00:49:28;9.48;81.66
75925;DHT22;64604;44.752;37.674;2022-11-09T00:50:29;9.49;81.81
75925;DHT22;64604;44.752;37.674;2022-11-09T00:51:31;9.48;81.61
75925;DHT22;64604;44.752;37.674;2022-11-09T00:52:33;9.46;81.97
75925;DHT22;64604;44.752;37.674;2022-11-09T00:53:34;9.46;81.49
75925;DHT22;64604;44.752;37.674;2022-11-09T00:54:36;9.46;81.43
75925;DHT22;64604;44.752;37.674;2022-11-09T00:55:37;9.46;81.55
75925;DHT22;64604;44.752;37.674;2022-11-09T00:56:38;9.46;81.48
75925;DHT22;64604;44.752;37.674;2022-11-09T00:57:40;9.44;81.57
75925;DHT22;64604;44.752;37.674;2022-11-09T00:58:42;9.46;81.66
75925;DHT22;64604;44.752;37.674;2022-11-09T00:59:44;9.46;81.68
75925;DHT22;64604;44.752;37.674;2022-11-09T01:00:45;9.45;81.76
75925;DHT22;64604;44.752;37.674;2022-11-09T01:01:47;9.45;81.31
75925;DHT22;64604;44.752;37.674;2022-11-09T01:02:49;9.45;80.77
75925;DHT22;64604;44.752;37.674;2022-11-09T01:03:52;9.41;80.37
75925;DHT22;64604;44.752;37.674;2022-11-09T01:04:54;9.41;80.52
75925;DHT22;64604;44.752;37.674;2022-11-09T01:05:58;9.38;80.32
75925;DHT22;64604;44.752;37.674;2022-11-09T01:07:00;9.36;80.35
75925;DHT22;64604;44.752;37.674;2022-11-09T01:08:01;9.36;80.23
75925;DHT22;64604;44.752;37.674;2022-11-09T01:09:02;9.34;80.18
75925;DHT22;64604;44.752;37.674;2022-11-09T01:10:05;9.31;80.22
75925;DHT22;64604;44.752;37.674;2022-11-09T01:11:08;9.26;80.44
75925;DHT22;64604;44.752;37.674;2022-11-09T01:12:10;9.24;80.18
75925;DHT22;64604;44.752;37.674;2022-11-09T01:13:13;9.24;80.34
75925;DHT22;64604;44.752;37.674;2022-11-09T01:14:14;9.22;80.07
75925;DHT22;64604;44.752;37.674;2022-11-09T01:15:16;9.17;80.25
75925;DHT22;64604;44.752;37.674;2022-11-09T01:16:20;9.18;80.33
75925;DHT22;64604;44.752;37.674;2022-11-09T01:17:21;9.16;80.29
75925;DHT22;64604;44.752;37.674;2022-11-09T01:18:23;9.15;80.20
75925;DHT22;64604;44.752;37.674;2022-11-09T01:19:28;9.16;80.28
75925;DHT22;64604;44.752;37.674;2022-11-09T01:20:29;9.11;80.17
75925;DHT22;64604;44.752;37.674;2022-11-09T01:21:31;9.08;80.07
75925;DHT22;64604;44.752;37.674;2022-11-09T01:22:34;9.06;80.19
75925;DHT22;64604;44.752;37.674;2022-11-09T01:23:36;9.05;80.23
75925;DHT22;64604;44.752;37.674;2022-11-09T01:24:37;9.02;80.04
75925;DHT22;64604;44.752;37.674;2022-11-09T01:25:39;8.97;80.24
75925;DHT22;64604;44.752;37.674;2022-11-09T01:26:40;8.97;80.26
75925;DHT22;64604;44.752;37.674;2022-11-09T01:27:41;8.96;80.07
75925;DHT22;64604;44.752;37.674;2022-11-09T01:28:43;8.94;80.06
75925;DHT22;64604;44.752;37.674;2022-11-09T01:29:44;8.91;80.07
75925;DHT22;64604;44.752;37.674;2022-11-09T01:30:46;8.89;80.08
75925;DHT22;64604;44.752;37.674;2022-11-09T01:31:47;8.85;80.20
75925;DHT22;64604;44.752;37.674;2022-11-09T01:32:49;8.85;80.24
75925;DHT22;64604;44.752;37.674;2022-11-09T01:33:50;8.82;80.34
75925;DHT22;64604;44.752;37.674;2022-11-09T01:34:51;8.80;80.66
75925;DHT22;64604;44.752;37.674;2022-11-09T01:35:53;8.80;80.69
75925;DHT22;64604;44.752;37.674;2022-11-09T01:36:54;8.77;80.38
75925;DHT22;64604;44.752;37.674;2022-11-09T01:37:56;8.75;80.60
75925;DHT22;64604;44.752;37.674;2022-11-09T01:38:57;8.74;80.86
75925;DHT22;64604;44.752;37.674;2022-11-09T01:39:59;8.75;81.26
75925;DHT22;64604;44.752;37.674;2022-11-09T01:41:00;8.76;81.48
75925;DHT22;64604;44.752;37.674;2022-11-09T01:42:02;8.80;81.27
75925;DHT22;64604;44.752;37.674;2022-11-09T01:43:16;8.78;81.73
75925;DHT22;64604;44.752;37.674;2022-11-09T01:44:19;8.77;81.76
75925;DHT22;64604;44.752;37.674;2022-11-09T01:45:26;8.79;82.08
75925;DHT22;64604;44.752;37.674;2022-11-09T01:46:44;8.78;82.78
75925;DHT22;64604;44.752;37.674;2022-11-09T01:47:51;8.77;82.17
75925;DHT22;64604;44.752;37.674;2022-11-09T01:48:58;8.75;82.55
75925;DHT22;64604;44.752;37.674;2022-11-09T01:50:01;8.71;82.11
75925;DHT22;64604;44.752;37.674;2022-11-09T01:51:34;8.71;82.16
75925;DHT22;64604;44.752;37.674;2022-11-09T01:52:41;8.67;82.17
75925;DHT22;64604;44.752;37.674;2022-11-09T01:53:46;8.66;82.26
75925;DHT22;64604;44.752;37.674;2022-11-09T01:54:54;8.65;82.32
75925;DHT22;64604;44.752;37.674;2022-11-09T01:56:01;8.63;81.69
75925;DHT22;64604;44.752;37.674;2022-11-09T01:57:41;8.61;81.37
75925;DHT22;64604;44.752;37.674;2022-11-09T01:59:00;8.59;81.82
75925;DHT22;64604;44.752;37.674;2022-11-09T02:00:10;8.57;81.56
75925;DHT22;64604;44.752;37.674;2022-11-09T02:01:16;8.51;82.54
75925;DHT22;64604;44.752;37.674;2022-11-09T02:02:19;8.51;82.24
75925;DHT22;64604;44.752;37.674;2022-11-09T02:03:25;8.49;81.97
75925;DHT22;64604;44.752;37.674;2022-11-09T02:04:39;8.48;81.72
75925;DHT22;64604;44.752;37.674;2022-11-09T02:05:46;8.47;81.90
75925;DHT22;64604;44.752;37.674;2022-11-09T02:06:49;8.48;81.88
75925;DHT22;64604;44.752;37.674;2022-11-09T02:07:54;8.48;81.84
75925;DHT22;64604;44.752;37.674;2022-11-09T02:09:09;8.47;81.86
75925;DHT22;64604;44.752;37.674;2022-11-09T02:10:19;8.45;82.20
75925;DHT22;64604;44.752;37.674;2022-11-09T02:11:25;8.42;82.08
75925;DHT22;64604;44.752;37.674;2022-11-09T02:12:32;8.42;82.17
75925;DHT22;64604;44.752;37.674;2022-11-09T02:13:37;8.41;82.32
75925;DHT22;64604;44.752;37.674;2022-11-09T02:14:43;8.43;82.13
75925;DHT22;64604;44.752;37.674;2022-11-09T02:15:45;8.48;81.95
75925;DHT22;64604;44.752;37.674;2022-11-09T02:16:47;8.47;82.07
75925;DHT22;64604;44.752;37.674;2022-11-09T02:17:51;8.47;81.98
75925;DHT22;64604;44.752;37.674;2022-11-09T02:18:56;8.44;82.10
75925;DHT22;64604;44.752;37.674;2022-11-09T02:19:59;8.43;82.01
75925;DHT22;64604;44.752;37.674;2022-11-09T02:21:01;8.43;82.27
75925;DHT22;64604;44.752;37.674;2022-11-09T02:22:03;8.43;82.23
75925;DHT22;64604;44.752;37.674;2022-11-09T02:23:05;8.42;82.03
75925;DHT22;64604;44.752;37.674;2022-11-09T02:24:07;8.42;82.07
75925;DHT22;64604;44.752;37.674;2022-11-09T02:25:10;8.38;82.01
75925;DHT22;64604;44.752;37.674;2022-11-09T02:26:18;8.36;82.18
75925;DHT22;64604;44.752;37.674;2022-11-09T02:27:22;8.33;82.63
75925;DHT22;64604;44.752;37.674;2022-11-09T02:28:25;8.34;82.34
75925;DHT22;64604;44.752;37.674;2022-11-09T02:29:32;8.34;82.34
75925;DHT22;64604;44.752;37.674;2022-11-09T02:30:35;8.32;82.49
75925;DHT22;64604;44.752;37.674;2022-11-09T02:31:40;8.29;82.41
75925;DHT22;64604;44.752;37.674;2022-11-09T02:32:43;8.27;82.68
75925;DHT22;64604;44.752;37.674;2022-11-09T02:33:54;8.30;82.58
75925;DHT22;64604;44.752;37.674;2022-11-09T02:34:56;8.29;82.46
75925;DHT22;64604;44.752;37.674;2022-11-09T02:35:57;8.27;82.55
75925;DHT22;64604;44.752;37.674;2022-11-09T02:36:59;8.28;82.91
75925;DHT22;64604;44.752;37.674;2022-11-09T02:38:00;8.27;82.85
75925;DHT22;64604;44.752;37.674;2022-11-09T02:39:03;8.26;83.37
75925;DHT22;64604;44.752;37.674;2022-11-09T02:40:13;8.27;82.92
75925;DHT22;64604;44.752;37.674;2022-11-09T02:41:17;8.24;83.07
75925;DHT22;64604;44.752;37.674;2022-11-09T02:42:19;8.26;83.20
75925;DHT22;64604;44.752;37.674;2022-11-09T02:43:21;8.29;83.22
75925;DHT22;64604;44.752;37.674;2022-11-09T02:44:23;8.28;83.06
75925;DHT22;64604;44.752;37.674;2022-11-09T02:45:26;8.30;83.20
75925;DHT22;64604;44.752;37.674;2022-11-09T02:46:33;8.33;83.20
75925;DHT22;64604;44.752;37.674;2022-11-09T02:47:35;8.34;83.32
75925;DHT22;64604;44.752;37.674;2022-11-09T02:48:36;8.36;83.03
75925;DHT22;64604;44.752;37.674;2022-11-09T02:49:38;8.41;82.97
75925;DHT22;64604;44.752;37.674;2022-11-09T02:50:39;8.43;83.07
75925;DHT22;64604;44.752;37.674;2022-11-09T02:51:41;8.45;82.81
75925;DHT22;64604;44.752;37.674;2022-11-09T02:52:42;8.47;83.11
75925;DHT22;64604;44.752;37.674;2022-11-09T02:53:44;8.50;82.72
75925;DHT22;64604;44.752;37.674;2022-11-09T02:54:45;8.55;82.77
75925;DHT22;64604;44.752;37.674;2022-11-09T02:55:47;8.58;82.66
75925;DHT22;64604;44.752;37.674;2022-11-09T02:56:48;8.60;82.55
75925;DHT22;64604;44.752;37.674;2022-11-09T02:57:49;8.65;82.23
75925;DHT22;64604;44.752;37.674;2022-11-09T02:58:51;8.67;82.13
75925;DHT22;64604;44.752;37.674;2022-11-09T02:59:52;8.71;82.00
75925;DHT22;64604;44.752;37.674;2022-11-09T03:00:54;8.75;81.91
75925;DHT22;64604;44.752;37.674;2022-11-09T03:01:58;8.77;81.74
75925;DHT22;64604;44.752;37.674;2022-11-09T03:03:02;8.79;81.79
75925;DHT22;64604;44.752;37.674;2022-11-09T03:04:03;8.80;81.52
75925;DHT22;64604;44.752;37.674;2022-11-09T03:05:07;8.81;81.51
75925;DHT22;64604;44.752;37.674;2022-11-09T03:06:09;8.82;81.36
75925;DHT22;64604;44.752;37.674;2022-11-09T03:07:11;8.85;81.21
75925;DHT22;64604;44.752;37.674;2022-11-09T03:08:13;8.85;81.31
75925;DHT22;64604;44.752;37.674;2022-11-09T03:09:15;8.86;81.14
75925;DHT22;64604;44.752;37.674;2022-11-09T03:10:16;8.88;81.23
75925;DHT22;64604;44.752;37.674;2022-11-09T03:11:18;8.87;81.20
75925;DHT22;64604;44.752;37.674;2022-11-09T03:12:20;8.86;81.02
75925;DHT22;64604;44.752;37.674;2022-11-09T03:13:34;8.82;81.22
75925;DHT22;64604;44.752;37.674;2022-11-09T03:14:36;8.82;81.40
75925;DHT22;64604;44.752;37.674;2022-11-09T03:15:38;8.82;81.43
75925;DHT22;64604;44.752;37.674;2022-11-09T03:16:41;8.79;81.40
75925;DHT22;64604;44.752;37.674;2022-11-09T03:17:43;8.79;81.36
75925;DHT22;64604;44.752;37.674;2022-11-09T03:18:45;8.78;81.24
75925;DHT22;64604;44.752;37.674;2022-11-09T03:19:46;8.77;81.21
75925;DHT22;64604;44.752;37.674;2022-11-09T03:20:48;8.77;81.16
75925;DHT22;64604;44.752;37.674;2022-11-09T03:21:51;8.74;81.28
75925;DHT22;64604;44.752;37.674;2022-11-09T03:22:59;8.73;81.20
75925;DHT22;64604;44.752;37.674;2022-11-09T03:24:03;8.72;81.25
75925;DHT22;64604;44.752;37.674;2022-11-09T03:25:05;8.72;81.53
75925;DHT22;64604;44.752;37.674;2022-11-09T03:26:07;8.72;81.42
75925;DHT22;64604;44.752;37.674;2022-11-09T03:27:09;8.70;81.52
75925;DHT22;64604;44.752;37.674;2022-11-09T03:28:10;8.70;81.13
75925;DHT22;64604;44.752;37.674;2022-11-09T03:29:13;8.70;81.14
75925;DHT22;64604;44.752;37.674;2022-11-09T03:30:14;8.68;81.00
75925;DHT22;64604;44.752;37.674;2022-11-09T03:31:19;8.67;80.90
75925;DHT22;64604;44.752;37.674;2022-11-09T03:32:22;8.65;80.70
75925;DHT22;64604;44.752;37.674;2022-11-09T03:33:24;8.65;80.67
75925;DHT22;64604;44.752;37.674;2022-11-09T03:34:25;8.64;80.55
75925;DHT22;64604;44.752;37.674;2022-11-09T03:35:27;8.62;80.62
75925;DHT22;64604;44.752;37.674;2022-11-09T03:36:29;8.60;80.33
75925;DHT22;64604;44.752;37.674;2022-11-09T03:37:30;8.58;80.41
75925;DHT22;64604;44.752;37.674;2022-11-09T03:38:31;8.57;80.38
75925;DHT22;64604;44.752;37.674;2022-11-09T03:39:33;8.55;80.30
75925;DHT22;64604;44.752;37.674;2022-11-09T03:40:34;8.52;80.46
75925;DHT22;64604;44.752;37.674;2022-11-09T03:41:36;8.50;80.34
75925;DHT22;64604;44.752;37.674;2022-11-09T03:42:42;8.49;80.49
75925;DHT22;64604;44.752;37.674;2022-11-09T03:43:44;8.46;80.51
75925;DHT22;64604;44.752;37.674;2022-11-09T03:44:46;8.46;80.52
75925;DHT22;64604;44.752;37.674;2022-11-09T03:45:47;8.46;80.44
75925;DHT22;64604;44.752;37.674;2022-11-09T03:46:49;8.47;80.39
75925;DHT22;64604;44.752;37.674;2022-11-09T03:47:50;8.47;80.65
75925;DHT22;64604;44.752;37.674;2022-11-09T03:48:52;8.47;80.51
75925;DHT22;64604;44.752;37.674;2022-11-09T03:49:53;8.46;80.62
75925;DHT22;64604;44.752;37.674;2022-11-09T03:50:54;8.44;80.43
75925;DHT22;64604;44.752;37.674;2022-11-09T03:51:56;8.43;80.54
75925;DHT22;64604;44.752;37.674;2022-11-09T03:52:58;8.43;80.42
75925;DHT22;64604;44.752;37.674;2022-11-09T03:53:59;8.42;80.72
75925;DHT22;64604;44.752;37.674;2022-11-09T03:55:01;8.41;80.96
75925;DHT22;64604;44.752;37.674;2022-11-09T03:56:04;8.36;80.70
75925;DHT22;64604;44.752;37.674;2022-11-09T03:57:05;8.36;80.96
75925;DHT22;64604;44.752;37.674;2022-11-09T03:58:08;8.35;80.89
75925;DHT22;64604;44.752;37.674;2022-11-09T03:59:10;8.34;80.91
75925;DHT22;64604;44.752;37.674;2022-11-09T04:00:14;8.35;80.99
75925;DHT22;64604;44.752;37.674;2022-11-09T04:01:16;8.35;80.76
75925;DHT22;64604;44.752;37.674;2022-11-09T04:02:17;8.34;80.86
75925;DHT22;64604;44.752;37.674;2022-11-09T04:03:19;8.32;81.04
75925;DHT22;64604;44.752;37.674;2022-11-09T04:04:20;8.31;81.39
75925;DHT22;64604;44.752;37.674;2022-11-09T04:05:21;8.30;81.18
75925;DHT22;64604;44.752;37.674;2022-11-09T04:06:23;8.30;81.58
75925;DHT22;64604;44.752;37.674;2022-11-09T04:07:24;8.28;81.10
75925;DHT22;64604;44.752;37.674;2022-11-09T04:08:26;8.29;81.16
75925;DHT22;64604;44.752;37.674;2022-11-09T04:09:27;8.31;80.87
75925;DHT22;64604;44.752;37.674;2022-11-09T04:10:28;8.32;80.68
75925;DHT22;64604;44.752;37.674;2022-11-09T04:11:30;8.30;80.57
75925;DHT22;64604;44.752;37.674;2022-11-09T04:12:31;8.29;80.80
75925;DHT22;64604;44.752;37.674;2022-11-09T04:13:32;8.28;80.61
75925;DHT22;64604;44.752;37.674;2022-11-09T04:14:34;8.28;80.60
75925;DHT22;64604;44.752;37.674;2022-11-09T04:15:35;8.28;80.64
75925;DHT22;64604;44.752;37.674;2022-11-09T04:16:37;8.27;80.49
75925;DHT22;64604;44.752;37.674;2022-11-09T04:17:39;8.29;80.40
75925;DHT22;64604;44.752;37.674;2022-11-09T04:18:40;8.27;80.71
75925;DHT22;64604;44.752;37.674;2022-11-09T04:19:42;8.27;80.80
75925;DHT22;64604;44.752;37.674;2022-11-09T04:20:43;8.28;80.41
75925;DHT22;64604;44.752;37.674;2022-11-09T04:21:45;8.28;80.29
75925;DHT22;64604;44.752;37.674;2022-11-09T04:22:56;8.27;80.40
75925;DHT22;64604;44.752;37.674;2022-11-09T04:23:57;8.28;80.39
75925;DHT22;64604;44.752;37.674;2022-11-09T04:24:58;8.24;80.52
75925;DHT22;64604;44.752;37.674;2022-11-09T04:26:00;8.22;79.94
75925;DHT22;64604;44.752;37.674;2022-11-09T04:27:02;8.20;80.17
75925;DHT22;64604;44.752;37.674;2022-11-09T04:28:05;8.20;80.86
75925;DHT22;64604;44.752;37.674;2022-11-09T04:29:07;8.20;80.47
75925;DHT22;64604;44.752;37.674;2022-11-09T04:30:08;8.21;80.46
75925;DHT22;64604;44.752;37.674;2022-11-09T04:31:10;8.19;80.24
75925;DHT22;64604;44.752;37.674;2022-11-09T04:32:11;8.17;80.21
75925;DHT22;64604;44.752;37.674;2022-11-09T04:33:13;8.17;80.15
75925;DHT22;64604;44.752;37.674;2022-11-09T04:34:15;8.17;80.21
75925;DHT22;64604;44.752;37.674;2022-11-09T04:35:16;8.16;80.34
75925;DHT22;64604;44.752;37.674;2022-11-09T04:36:18;8.15;80.23
75925;DHT22;64604;44.752;37.674;2022-11-09T04:37:19;8.14;80.38
75925;DHT22;64604;44.752;37.674;2022-11-09T04:38:20;8.16;80.39
75925;DHT22;64604;44.752;37.674;2022-11-09T04:39:22;8.16;80.34
75925;DHT22;64604;44.752;37.674;2022-11-09T04:40:25;8.15;80.24
75925;DHT22;64604;44.752;37.674;2022-11-09T04:41:27;8.14;80.35
75925;DHT22;64604;44.752;37.674;2022-11-09T04:42:28;8.15;80.06
75925;DHT22;64604;44.752;37.674;2022-11-09T04:43:29;8.16;80.62
75925;DHT22;64604;44.752;37.674;2022-11-09T04:44:31;8.15;80.25
75925;DHT22;64604;44.752;37.674;2022-11-09T04:45:33;8.15;79.75
75925;DHT22;64604;44.752;37.674;2022-11-09T04:46:34;8.15;79.92
75925;DHT22;64604;44.752;37.674;2022-11-09T04:47:36;8.16;79.92
75925;DHT22;64604;44.752;37.674;2022-11-09T04:48:37;8.19;80.15
75925;DHT22;64604;44.752;37.674;2022-11-09T04:49:39;8.20;79.80
75925;DHT22;64604;44.752;37.674;2022-11-09T04:50:40;8.23;79.87
75925;DHT22;64604;44.752;37.674;2022-11-09T04:51:41;8.26;79.60
75925;DHT22;64604;44.752;37.674;2022-11-09T04:52:43;8.29;79.56
75925;DHT22;64604;44.752;37.674;2022-11-09T04:53:44;8.28;79.54
75925;DHT22;64604;44.752;37.674;2022-11-09T04:54:46;8.26;79.27
75925;DHT22;64604;44.752;37.674;2022-11-09T04:55:47;8.24;79.53
75925;DHT22;64604;44.752;37.674;2022-11-09T04:56:48;8.24;79.54
75925;DHT22;64604;44.752;37.674;2022-11-09T04:57:50;8.27;79.64
75925;DHT22;64604;44.752;37.674;2022-11-09T04:58:51;8.28;79.49
75925;DHT22;64604;44.752;37.674;2022-11-09T04:59:52;8.33;79.67
75925;DHT22;64604;44.752;37.674;2022-11-09T05:00:54;8.33;79.27
75925;DHT22;64604;44.752;37.674;2022-11-09T05:02:01;8.34;79.40
75925;DHT22;64604;44.752;37.674;2022-11-09T05:03:04;8.36;79.37
75925;DHT22;64604;44.752;37.674;2022-11-09T05:04:06;8.35;79.33
75925;DHT22;64604;44.752;37.674;2022-11-09T05:05:07;8.37;79.68
75925;DHT22;64604;44.752;37.674;2022-11-09T05:06:09;8.38;79.51
75925;DHT22;64604;44.752;37.674;2022-11-09T05:07:28;8.43;79.40
75925;DHT22;64604;44.752;37.674;2022-11-09T05:08:30;8.47;79.24
75925;DHT22;64604;44.752;37.674;2022-11-09T05:09:31;8.50;79.12
75925;DHT22;64604;44.752;37.674;2022-11-09T05:10:33;8.55;79.27
75925;DHT22;64604;44.752;37.674;2022-11-09T05:11:35;8.59;78.84
75925;DHT22;64604;44.752;37.674;2022-11-09T05:12:37;8.60;78.99
75925;DHT22;64604;44.752;37.674;2022-11-09T05:13:38;8.62;78.80
75925;DHT22;64604;44.752;37.674;2022-11-09T05:14:39;8.65;78.67
75925;DHT22;64604;44.752;37.674;2022-11-09T05:15:41;8.70;78.77
75925;DHT22;64604;44.752;37.674;2022-11-09T05:16:42;8.70;78.43
75925;DHT22;64604;44.752;37.674;2022-11-09T05:17:44;8.68;78.42
75925;DHT22;64604;44.752;37.674;2022-11-09T05:18:45;8.68;78.43
75925;DHT22;64604;44.752;37.674;2022-11-09T05:19:47;8.67;78.30
75925;DHT22;64604;44.752;37.674;2022-11-09T05:20:48;8.66;78.51
75925;DHT22;64604;44.752;37.674;2022-11-09T05:21:50;8.65;78.24
75925;DHT22;64604;44.752;37.674;2022-11-09T05:22:51;8.65;78.48
75925;DHT22;64604;44.752;37.674;2022-11-09T05:24:11;8.62;78.07
75925;DHT22;64604;44.752;37.674;2022-11-09T05:25:13;8.64;78.60
75925;DHT22;64604;44.752;37.674;2022-11-09T05:26:14;8.65;78.51
75925;DHT22;64604;44.752;37.674;2022-11-09T05:27:16;8.65;78.49
75925;DHT22;64604;44.752;37.674;2022-11-09T05:28:17;8.68;78.30
75925;DHT22;64604;44.752;37.674;2022-11-09T05:29:19;8.70;78.27
75925;DHT22;64604;44.752;37.674;2022-11-09T05:30:20;8.71;78.18
75925;DHT22;64604;44.752;37.674;2022-11-09T05:31:22;8.73;77.77
75925;DHT22;64604;44.752;37.674;2022-11-09T05:32:23;8.78;77.89
75925;DHT22;64604;44.752;37.674;2022-11-09T05:33:25;8.80;77.95
75925;DHT22;64604;44.752;37.674;2022-11-09T05:34:26;8.82;77.57
75925;DHT22;64604;44.752;37.674;2022-11-09T05:35:28;8.85;77.73
75925;DHT22;64604;44.752;37.674;2022-11-09T05:36:30;8.87;77.18
75925;DHT22;64604;44.752;37.674;2022-11-09T05:37:31;8.88;76.97
75925;DHT22;64604;44.752;37.674;2022-11-09T05:38:33;8.90;77.28
75925;DHT22;64604;44.752;37.674;2022-11-09T05:39:34;8.89;77.58
75925;DHT22;64604;44.752;37.674;2022-11-09T05:40:36;8.93;77.49
75925;DHT22;64604;44.752;37.674;2022-11-09T05:41:37;8.97;76.88
75925;DHT22;64604;44.752;37.674;2022-11-09T05:42:39;9.01;77.24
75925;DHT22;64604;44.752;37.674;2022-11-09T05:43:41;9.04;76.84
75925;DHT22;64604;44.752;37.674;2022-11-09T05:44:44;9.07;76.48
75925;DHT22;64604;44.752;37.674;2022-11-09T05:45:46;9.04;76.49
75925;DHT22;64604;44.752;37.674;2022-11-09T05:46:47;9.08;76.28
75925;DHT22;64604;44.752;37.674;2022-11-09T05:47:49;9.09;76.39
75925;DHT22;64604;44.752;37.674;2022-11-09T05:48:53;9.14;76.28
75925;DHT22;64604;44.752;37.674;2022-11-09T05:49:55;9.11;75.85
75925;DHT22;64604;44.752;37.674;2022-11-09T05:51:00;9.10;75.86
75925;DHT22;64604;44.752;37.674;2022-11-09T05:52:02;9.10;75.74
75925;DHT22;64604;44.752;37.674;2022-11-09T05:53:04;9.07;75.92
75925;DHT22;64604;44.752;37.674;2022-11-09T05:54:05;9.08;76.52
75925;DHT22;64604;44.752;37.674;2022-11-09T05:55:07;9.11;76.52
75925;DHT22;64604;44.752;37.674;2022-11-09T05:56:10;9.15;76.28
75925;DHT22;64604;44.752;37.674;2022-11-09T05:57:12;9.20;76.55
75925;DHT22;64604;44.752;37.674;2022-11-09T05:58:14;9.23;75.94
75925;DHT22;64604;44.752;37.674;2022-11-09T05:59:15;9.26;76.51
75925;DHT22;64604;44.752;37.674;2022-11-09T06:00:18;9.30;76.07
75925;DHT22;64604;44.752;37.674;2022-11-09T06:01:26;9.33;75.80
75925;DHT22;64604;44.752;37.674;2022-11-09T06:02:31;9.38;75.56
75925;DHT22;64604;44.752;37.674;2022-11-09T06:03:38;9.41;75.60
75925;DHT22;64604;44.752;37.674;2022-11-09T06:04:45;9.45;75.50
75925;DHT22;64604;44.752;37.674;2022-11-09T06:05:52;9.49;75.39
75925;DHT22;64604;44.752;37.674;2022-11-09T06:06:54;9.53;75.46
75925;DHT22;64604;44.752;37.674;2022-11-09T06:08:01;9.57;75.50
75925;DHT22;64604;44.752;37.674;2022-11-09T06:09:07;9.67;75.20
75925;DHT22;64604;44.752;37.674;2022-11-09T06:10:12;9.68;74.70
75925;DHT22;64604;44.752;37.674;2022-11-09T06:11:14;9.75;74.59
75925;DHT22;64604;44.752;37.674;2022-11-09T06:12:25;9.75;73.72
75925;DHT22;64604;44.752;37.674;2022-11-09T06:13:31;9.76;74.17
75925;DHT22;64604;44.752;37.674;2022-11-09T06:14:33;9.75;74.38
75925;DHT22;64604;44.752;37.674;2022-11-09T06:15:34;9.77;73.96
75925;DHT22;64604;44.752;37.674;2022-11-09T06:16:36;9.81;74.10
75925;DHT22;64604;44.752;37.674;2022-11-09T06:17:37;9.84;74.08
75925;DHT22;64604;44.752;37.674;2022-11-09T06:18:39;9.88;73.94
75925;DHT22;64604;44.752;37.674;2022-11-09T06:19:43;9.92;73.90
75925;DHT22;64604;44.752;37.674;2022-11-09T06:20:44;10.00;73.85
75925;DHT22;64604;44.752;37.674;2022-11-09T06:21:46;10.08;74.17
75925;DHT22;64604;44.752;37.674;2022-11-09T06:22:56;10.15;72.80
75925;DHT22;64604;44.752;37.674;2022-11-09T06:23:59;10.16;72.87
75925;DHT22;64604;44.752;37.674;2022-11-09T06:25:00;10.20;73.38
75925;DHT22;64604;44.752;37.674;2022-11-09T06:26:07;10.23;73.15
75925;DHT22;64604;44.752;37.674;2022-11-09T06:27:11;10.27;72.94
75925;DHT22;64604;44.752;37.674;2022-11-09T06:28:13;10.34;72.50
75925;DHT22;64604;44.752;37.674;2022-11-09T06:29:14;10.38;73.15
75925;DHT22;64604;44.752;37.674;2022-11-09T06:30:15;10.34;72.54
75925;DHT22;64604;44.752;37.674;2022-11-09T06:31:17;10.31;72.42
75925;DHT22;64604;44.752;37.674;2022-11-09T06:32:20;10.31;72.15
75925;DHT22;64604;44.752;37.674;2022-11-09T06:33:21;10.31;72.48
75925;DHT22;64604;44.752;37.674;2022-11-09T06:34:23;10.33;72.33
75925;DHT22;64604;44.752;37.674;2022-11-09T06:35:24;10.34;71.84
75925;DHT22;64604;44.752;37.674;2022-11-09T06:36:26;10.34;72.12
75925;DHT22;64604;44.752;37.674;2022-11-09T06:37:27;10.31;71.82